createdAt,value
2023-05-04T00:02:34.730Z,9.50
2023-05-04T00:05:23.120Z,9.50
2023-05-04T00:08:10.996Z,9.40
2023-05-04T00:10:59.028Z,9.40
2023-05-04T00:13:46.974Z,9.40
2023-05-04T00:16:36.696Z,9.40
2023-05-04T00:19:24.707Z,9.40
2023-05-04T00:22:12.926Z,9.30
2023-05-04T00:25:01.068Z,9.30
2023-05-04T00:27:49.015Z,9.30
2023-05-04T00:30:37.334Z,9.30
2023-05-04T00:33:26.719Z,9.30
2023-05-04T00:36:14.840Z,9.30
2023-05-04T00:39:02.810Z,9.30
2023-05-04T00:41:50.746Z,9.30
2023-05-04T00:44:41.373Z,9.30
2023-05-04T00:47:30.785Z,9.30
2023-05-04T00:50:20.718Z,9.20
2023-05-04T00:53:10.292Z,9.20
2023-05-04T00:55:58.920Z,9.10
2023-05-04T00:58:47.198Z,9.20
2023-05-04T01:01:35.306Z,9.10
2023-05-04T01:04:23.366Z,9.10
2023-05-04T01:07:21.100Z,9.10
2023-05-04T01:10:14.782Z,9.10
2023-05-04T01:13:08.448Z,9.00
2023-05-04T01:15:56.679Z,9.00
2023-05-04T01:18:44.750Z,9.00
2023-05-04T01:21:35.546Z,8.90
2023-05-04T01:24:24.128Z,8.90
2023-05-04T01:27:18.380Z,8.80
2023-05-04T01:30:12.289Z,8.90
2023-05-04T01:33:02.047Z,8.80
2023-05-04T01:35:50.733Z,8.80
2023-05-04T01:38:40.159Z,8.70
2023-05-04T01:41:28.837Z,8.60
2023-05-04T01:44:17.449Z,8.60
2023-05-04T01:47:05.495Z,8.50
2023-05-04T01:49:53.472Z,8.50
2023-05-04T01:52:41.463Z,8.50
2023-05-04T01:55:31.531Z,8.40
2023-05-04T01:58:19.667Z,8.40
2023-05-04T02:01:08.118Z,8.40
2023-05-04T02:03:56.149Z,8.30
2023-05-04T02:06:44.245Z,8.30
2023-05-04T02:09:32.441Z,8.30
2023-05-04T02:12:21.753Z,8.30
2023-05-04T02:15:10.850Z,8.20
2023-05-04T02:17:58.781Z,8.20
2023-05-04T02:20:46.778Z,8.20
2023-05-04T02:23:34.730Z,8.20
2023-05-04T02:26:22.692Z,8.10
2023-05-04T02:29:11.928Z,8.10
2023-05-04T02:31:59.923Z,8.10
2023-05-04T02:34:47.943Z,8.10
2023-05-04T02:37:35.913Z,8.10
2023-05-04T02:40:23.935Z,8.00
2023-05-04T02:43:11.878Z,8.00
2023-05-04T02:46:01.245Z,7.90
2023-05-04T02:48:49.493Z,7.80
2023-05-04T02:51:37.431Z,7.80
2023-05-04T02:54:25.445Z,7.80
2023-05-04T02:57:13.441Z,7.70
2023-05-04T03:00:01.463Z,7.80
2023-05-04T03:02:50.998Z,7.70
2023-05-04T03:05:38.994Z,7.70
2023-05-04T03:08:27.150Z,7.80
2023-05-04T03:11:15.312Z,7.80
2023-05-04T03:14:03.411Z,7.70
2023-05-04T03:16:51.527Z,7.70
2023-05-04T03:19:41.074Z,7.70
2023-05-04T03:22:29.042Z,7.70
2023-05-04T03:25:17.368Z,7.60
2023-05-04T03:28:05.787Z,7.60
2023-05-04T03:30:53.845Z,7.60
2023-05-04T03:33:41.754Z,7.60
2023-05-04T03:36:31.284Z,7.60
2023-05-04T03:39:19.191Z,7.60
2023-05-04T03:42:07.120Z,7.50
2023-05-04T03:44:55.220Z,7.50
2023-05-04T03:47:43.222Z,7.50
2023-05-04T03:50:31.908Z,7.60
2023-05-04T03:53:21.319Z,7.50
2023-05-04T03:56:09.626Z,7.60
2023-05-04T03:58:57.628Z,7.50
2023-05-04T04:01:46.093Z,7.60
2023-05-04T04:04:34.180Z,7.60
2023-05-04T04:07:22.242Z,7.50
2023-05-04T04:10:12.366Z,7.50
2023-05-04T04:13:00.302Z,7.60
2023-05-04T04:15:48.310Z,7.50
2023-05-04T04:18:36.331Z,7.60
2023-05-04T04:21:24.281Z,7.60
2023-05-04T04:24:12.404Z,7.60
2023-05-04T04:27:02.820Z,7.60
2023-05-04T04:29:50.785Z,7.60
2023-05-04T04:32:38.794Z,7.60
2023-05-04T04:35:27.490Z,7.60
2023-05-04T04:38:15.546Z,7.70
2023-05-04T04:41:03.475Z,7.70
2023-05-04T04:43:52.741Z,7.80
2023-05-04T04:46:40.724Z,7.90
2023-05-04T04:49:28.831Z,7.90
2023-05-04T04:52:17.263Z,7.90
2023-05-04T04:55:05.685Z,8.00
2023-05-04T04:57:54.515Z,8.10
2023-05-04T05:00:45.379Z,8.10
2023-05-04T05:03:33.789Z,8.20
2023-05-04T05:06:22.162Z,8.20
2023-05-04T05:09:10.493Z,8.30
2023-05-04T05:11:58.421Z,8.40
2023-05-04T05:14:47.273Z,8.40
2023-05-04T05:17:37.549Z,8.60
2023-05-04T05:20:25.985Z,8.60
2023-05-04T05:23:14.018Z,8.60
2023-05-04T05:26:03.387Z,8.70
2023-05-04T05:28:51.977Z,8.90
2023-05-04T05:31:40.064Z,8.90
2023-05-04T05:34:29.662Z,9.00
2023-05-04T05:37:17.591Z,9.00
2023-05-04T05:40:07.949Z,9.00
2023-05-04T05:42:56.090Z,9.10
2023-05-04T05:45:44.064Z,9.10
2023-05-04T05:48:31.913Z,9.20
2023-05-04T05:51:21.366Z,9.20
2023-05-04T05:54:09.247Z,9.20
2023-05-04T05:56:57.190Z,9.30
2023-05-04T05:59:45.084Z,9.40
2023-05-04T06:02:33.108Z,9.40
2023-05-04T06:05:21.031Z,9.50
2023-05-04T06:08:10.390Z,9.60
2023-05-04T06:10:58.310Z,9.70
2023-05-04T06:13:46.221Z,9.70
2023-05-04T06:16:34.246Z,9.80
2023-05-04T06:19:22.136Z,9.80
2023-05-04T06:22:10.064Z,9.80
2023-05-04T06:25:03.678Z,9.80
2023-05-04T06:27:53.939Z,9.90
2023-05-04T06:30:41.850Z,9.90
2023-05-04T06:33:29.892Z,10.00
2023-05-04T06:36:17.887Z,10.00
2023-05-04T06:39:05.803Z,10.00
2023-05-04T06:41:56.265Z,10.00
2023-05-04T06:44:44.243Z,10.10
2023-05-04T06:47:32.279Z,10.20
2023-05-04T06:50:20.405Z,10.20
2023-05-04T06:53:10.162Z,10.20
2023-05-04T06:55:58.103Z,10.30
2023-05-04T06:58:47.458Z,10.40
2023-05-04T07:01:35.449Z,10.50
2023-05-04T07:04:23.583Z,10.60
2023-05-04T07:07:11.481Z,10.60
2023-05-04T07:09:59.427Z,10.70
2023-05-04T07:12:47.913Z,10.80
2023-05-04T07:15:37.347Z,11.00
2023-05-04T07:18:25.273Z,11.00
2023-05-04T07:24:05.247Z,11.20
2023-05-04T07:26:53.208Z,11.30
2023-05-04T07:29:41.643Z,11.40
2023-05-04T07:32:31.010Z,11.50
2023-05-04T07:35:19.049Z,11.60
2023-05-04T07:38:08.201Z,11.70
2023-05-04T07:40:56.522Z,11.80
2023-05-04T07:43:44.490Z,11.90
2023-05-04T07:46:32.501Z,12.10
2023-05-04T07:49:21.731Z,12.10
2023-05-04T07:52:09.703Z,12.20
2023-05-04T07:54:57.874Z,12.40
2023-05-04T07:57:45.816Z,12.50
2023-05-04T08:00:33.697Z,12.60
2023-05-04T08:03:21.714Z,12.80
2023-05-04T08:06:11.012Z,13.00
2023-05-04T08:08:59.251Z,13.10
2023-05-04T08:11:48.220Z,13.30
2023-05-04T08:14:38.424Z,13.40
2023-05-04T08:17:26.978Z,13.50
2023-05-04T08:20:15.278Z,13.60
2023-05-04T08:23:05.056Z,13.70
2023-05-04T08:25:53.480Z,13.80
2023-05-04T08:28:41.716Z,13.90
2023-05-04T08:31:30.220Z,14.00
2023-05-04T08:34:18.122Z,14.10
2023-05-04T08:37:06.139Z,14.20
2023-05-04T08:39:55.507Z,14.30
2023-05-04T08:42:48.005Z,14.50
2023-05-04T08:45:39.486Z,14.60
2023-05-04T08:48:27.694Z,14.60
2023-05-04T08:51:16.103Z,14.80
2023-05-04T08:54:07.784Z,14.90
2023-05-04T08:56:58.809Z,15.00
2023-05-04T08:59:50.429Z,15.10
2023-05-04T09:02:39.040Z,15.20
2023-05-04T09:05:27.530Z,15.20
2023-05-04T09:08:16.403Z,15.30
2023-05-04T09:11:04.857Z,15.40
2023-05-04T09:13:54.189Z,15.50
2023-05-04T09:16:42.563Z,15.50
2023-05-04T09:19:33.656Z,15.60
2023-05-04T09:22:21.701Z,15.70
2023-05-04T09:25:11.759Z,15.90
2023-05-04T09:27:59.913Z,16.00
2023-05-04T09:30:49.805Z,16.10
2023-05-04T09:33:37.923Z,16.20
2023-05-04T09:36:26.663Z,16.40
2023-05-04T09:39:16.126Z,16.40
2023-05-04T09:42:04.930Z,16.50
2023-05-04T09:45:03.166Z,16.40
2023-05-04T09:47:54.338Z,16.60
2023-05-04T09:50:49.589Z,16.70
2023-05-04T09:53:41.989Z,16.70
2023-05-04T09:56:38.575Z,16.80
2023-05-04T09:59:31.678Z,16.90
2023-05-04T10:02:23.293Z,17.10
2023-05-04T10:05:17.112Z,17.20
2023-05-04T10:08:06.604Z,17.30
2023-05-04T10:10:55.685Z,17.40
2023-05-04T10:13:43.683Z,17.50
2023-05-04T10:16:42.571Z,17.60
2023-05-04T10:19:43.639Z,17.70
2023-05-04T10:22:49.688Z,17.80
2023-05-04T10:25:52.640Z,17.80
2023-05-04T10:28:50.769Z,17.90
2023-05-04T10:31:40.475Z,17.90
2023-05-04T10:34:30.805Z,17.90
2023-05-04T10:37:20.437Z,18.00
2023-05-04T10:40:10.880Z,18.10
2023-05-04T10:42:58.785Z,18.20
2023-05-04T10:45:46.740Z,18.20
2023-05-04T10:48:35.886Z,18.20
2023-05-04T10:51:30.123Z,18.20
2023-05-04T10:54:23.800Z,18.40
2023-05-04T10:57:17.072Z,18.40
2023-05-04T11:00:05.808Z,18.50
2023-05-04T11:03:04.236Z,18.50
2023-05-04T11:05:54.717Z,18.60
2023-05-04T11:08:43.126Z,18.60
2023-05-04T11:11:31.069Z,18.60
2023-05-04T11:14:25.963Z,18.70
2023-05-04T11:20:08.000Z,18.90
2023-05-04T11:22:56.197Z,19.00
2023-05-04T11:25:44.283Z,19.10
2023-05-04T11:28:35.985Z,19.20
2023-05-04T11:31:25.802Z,19.30
2023-05-04T11:34:21.047Z,19.50
2023-05-04T11:37:08.957Z,19.60
2023-05-04T11:39:58.097Z,19.80
2023-05-04T11:42:46.448Z,19.80
2023-05-04T11:45:37.643Z,19.90
2023-05-04T11:48:27.941Z,19.90
2023-05-04T11:51:15.924Z,20.00
2023-05-04T11:54:04.046Z,20.10
2023-05-04T11:56:51.987Z,20.10
2023-05-04T11:59:49.638Z,20.20
2023-05-04T12:02:37.662Z,20.20
2023-05-04T12:05:28.588Z,20.20
2023-05-04T12:08:27.551Z,20.20
2023-05-04T12:11:20.341Z,20.30
2023-05-04T12:14:10.389Z,20.40
2023-05-04T12:17:01.752Z,20.50
2023-05-04T12:19:54.186Z,20.50
2023-05-04T12:22:43.724Z,20.60
2023-05-04T12:25:31.655Z,20.70
2023-05-04T12:28:20.762Z,20.70
2023-05-04T12:31:09.360Z,20.80
2023-05-04T12:33:57.337Z,20.90
2023-05-04T12:36:45.401Z,20.90
2023-05-04T12:39:34.688Z,21.00
2023-05-04T12:42:22.712Z,21.10
2023-05-04T12:45:11.579Z,21.10
2023-05-04T12:47:59.558Z,21.20
2023-05-04T12:50:48.550Z,21.20
2023-05-04T12:53:36.943Z,21.20
2023-05-04T12:56:26.309Z,21.20
2023-05-04T12:59:14.542Z,21.20
2023-05-04T13:02:02.771Z,21.30
2023-05-04T13:04:50.706Z,21.40
2023-05-04T13:07:38.605Z,21.40
2023-05-04T13:10:27.017Z,21.40
2023-05-04T13:13:17.955Z,21.40
2023-05-04T13:16:06.865Z,21.40
2023-05-04T13:18:55.476Z,21.50
2023-05-04T13:21:44.166Z,21.60
2023-05-04T13:24:32.063Z,21.70
2023-05-04T13:27:20.070Z,21.80
2023-05-04T13:30:10.930Z,21.80
2023-05-04T13:32:59.004Z,21.90
2023-05-04T13:35:46.939Z,21.90
2023-05-04T13:38:35.011Z,22.00
2023-05-04T13:41:23.070Z,22.10
2023-05-04T13:44:11.221Z,22.10
2023-05-04T13:47:03.190Z,22.20
2023-05-04T13:49:51.435Z,22.20
2023-05-04T13:52:39.405Z,22.30
2023-05-04T13:55:27.561Z,22.50
2023-05-04T13:58:15.488Z,22.50
2023-05-04T14:01:03.517Z,22.50
2023-05-04T14:03:54.069Z,22.60
2023-05-04T14:06:42.031Z,22.60
2023-05-04T14:09:29.965Z,22.60
2023-05-04T14:12:19.724Z,22.70
2023-05-04T14:15:08.704Z,22.70
2023-05-04T14:17:56.833Z,22.90
2023-05-04T14:20:46.218Z,23.00
2023-05-04T14:23:34.274Z,23.10
2023-05-04T14:26:22.294Z,23.30
2023-05-04T14:29:10.277Z,23.40
2023-05-04T14:31:58.187Z,23.50
2023-05-04T14:34:47.799Z,23.50
2023-05-04T14:37:39.890Z,23.60
2023-05-04T14:40:28.200Z,23.80
2023-05-04T14:43:16.205Z,23.90
2023-05-04T14:46:04.245Z,24.00
2023-05-04T14:48:52.455Z,24.00
2023-05-04T14:51:40.408Z,24.00
2023-05-04T14:54:30.172Z,24.10
2023-05-04T14:57:18.133Z,24.10
2023-05-04T15:00:08.791Z,24.30
2023-05-04T15:02:57.183Z,24.30
2023-05-04T15:05:45.493Z,24.40
2023-05-04T15:08:33.442Z,24.50
2023-05-04T15:11:22.708Z,24.60
2023-05-04T15:14:10.628Z,24.70
2023-05-04T15:16:58.539Z,24.80
2023-05-04T15:19:46.400Z,24.90
2023-05-04T15:22:34.490Z,24.90
2023-05-04T15:25:24.881Z,25.00
2023-05-04T15:28:14.229Z,25.00
2023-05-04T15:31:03.555Z,25.10
2023-05-04T15:33:51.591Z,25.10
2023-05-04T15:36:39.570Z,25.20
2023-05-04T15:39:27.526Z,25.10
2023-05-04T15:42:15.547Z,25.20
2023-05-04T15:45:05.469Z,25.20
2023-05-04T15:47:54.240Z,25.30
2023-05-04T15:50:42.515Z,25.30
2023-05-04T15:53:30.495Z,25.30
2023-05-04T15:56:18.594Z,25.30
2023-05-04T15:59:06.624Z,25.20
2023-05-04T16:01:56.040Z,25.20
2023-05-04T16:04:43.956Z,25.20
2023-05-04T16:07:31.990Z,25.20
2023-05-04T16:10:20.279Z,25.30
2023-05-04T16:13:09.933Z,25.30
2023-05-04T16:15:59.912Z,25.30
2023-05-04T16:18:49.229Z,25.50
2023-05-04T16:21:37.169Z,25.50
2023-05-04T16:24:25.812Z,25.50
2023-05-04T16:27:13.770Z,25.50
2023-05-04T16:30:01.749Z,25.30
2023-05-04T16:32:50.070Z,25.30
2023-05-04T16:35:39.726Z,25.20
2023-05-04T16:38:27.675Z,25.20
2023-05-04T16:41:15.758Z,25.10
2023-05-04T16:44:03.717Z,25.10
2023-05-04T16:46:52.054Z,25.10
2023-05-04T16:49:39.903Z,25.10
2023-05-04T16:52:29.187Z,25.00
2023-05-04T16:55:17.164Z,25.00
2023-05-04T16:58:05.436Z,24.80
2023-05-04T17:00:53.485Z,24.80
2023-05-04T17:03:41.641Z,24.70
2023-05-04T17:06:29.636Z,24.60
2023-05-04T17:09:18.858Z,24.50
2023-05-04T17:12:07.491Z,24.50
2023-05-04T17:14:55.642Z,24.40
2023-05-04T17:17:43.693Z,24.30
2023-05-04T17:20:31.983Z,24.20
2023-05-04T17:23:20.288Z,24.10
2023-05-04T17:26:10.355Z,24.00
2023-05-04T17:28:58.489Z,23.90
2023-05-04T17:31:46.448Z,23.80
2023-05-04T17:34:34.381Z,23.70
2023-05-04T17:37:22.304Z,23.60
2023-05-04T17:40:11.310Z,23.40
2023-05-04T17:43:01.327Z,23.30
2023-05-04T17:45:49.535Z,23.30
2023-05-04T17:48:37.578Z,23.10
2023-05-04T17:51:25.839Z,23.00
2023-05-04T17:54:13.770Z,22.90
2023-05-04T17:57:01.696Z,22.80
2023-05-04T17:59:50.962Z,22.70
2023-05-04T18:02:39.192Z,22.50
2023-05-04T18:05:27.219Z,22.40
2023-05-04T18:08:15.630Z,22.40
2023-05-04T18:11:03.631Z,22.30
2023-05-04T18:13:51.943Z,22.10
2023-05-04T18:16:41.301Z,22.10
2023-05-04T18:19:29.488Z,22.00
2023-05-04T18:22:17.945Z,22.00
2023-05-04T18:25:06.827Z,21.90
2023-05-04T18:27:54.775Z,21.80
2023-05-04T18:30:42.868Z,21.80
2023-05-04T18:33:32.495Z,21.80
2023-05-04T18:36:20.480Z,21.70
2023-05-04T18:39:08.748Z,21.60
2023-05-04T18:41:56.769Z,21.50
2023-05-04T18:44:44.749Z,21.20
2023-05-04T18:47:32.756Z,21.10
2023-05-04T18:50:22.049Z,20.90
2023-05-04T18:53:09.966Z,20.90
2023-05-04T18:56:02.736Z,20.70
2023-05-04T18:58:51.153Z,20.60
2023-05-04T19:01:39.391Z,20.50
2023-05-04T19:04:27.620Z,20.50
2023-05-04T19:07:17.778Z,20.40
2023-05-04T19:10:07.206Z,20.30
2023-05-04T19:12:55.931Z,20.20
2023-05-04T19:15:44.222Z,20.10
2023-05-04T19:18:34.305Z,20.00
2023-05-04T19:21:22.667Z,19.90
2023-05-04T19:24:11.984Z,19.80
2023-05-04T19:27:00.737Z,19.70
2023-05-04T19:29:48.782Z,19.60
2023-05-04T19:32:38.698Z,19.50
2023-05-04T19:35:26.899Z,19.50
2023-05-04T19:38:14.872Z,19.40
2023-05-04T19:41:04.292Z,19.40
2023-05-04T19:43:52.234Z,19.40
2023-05-04T19:46:40.179Z,19.30
2023-05-04T19:49:28.194Z,19.20
2023-05-04T19:52:16.614Z,19.10
2023-05-04T19:55:04.592Z,19.10
2023-05-04T19:57:54.091Z,19.00
2023-05-04T20:00:42.086Z,18.90
2023-05-04T20:03:30.341Z,18.80
2023-05-04T20:06:18.297Z,18.70
2023-05-04T20:09:06.724Z,18.70
2023-05-04T20:11:54.679Z,18.60
2023-05-04T20:14:44.278Z,18.50
2023-05-04T20:17:32.292Z,18.40
2023-05-04T20:20:22.597Z,18.30
2023-05-04T20:23:10.498Z,18.30
2023-05-04T20:25:58.830Z,18.20
2023-05-04T20:28:46.805Z,18.20
2023-05-04T20:31:36.291Z,18.10
2023-05-04T20:34:24.357Z,18.00
2023-05-04T20:37:12.298Z,18.00
2023-05-04T20:40:00.278Z,17.90
2023-05-04T20:42:48.274Z,17.80
2023-05-04T20:45:36.193Z,17.80
2023-05-04T20:48:25.643Z,17.70
2023-05-04T20:51:15.108Z,17.70
2023-05-04T20:54:03.625Z,17.60
2023-05-04T20:56:51.559Z,17.60
2023-05-04T20:59:39.503Z,17.50
2023-05-04T21:02:27.494Z,17.50
2023-05-04T21:05:17.037Z,17.40
2023-05-04T21:08:05.377Z,17.40
2023-05-04T21:10:53.466Z,17.40
2023-05-04T21:13:41.423Z,17.40
2023-05-04T21:16:29.446Z,17.40
2023-05-04T21:19:17.538Z,17.30
2023-05-04T21:22:06.853Z,17.20
2023-05-04T21:24:54.810Z,17.10
2023-05-04T21:27:44.411Z,17.00
2023-05-04T21:30:32.575Z,16.90
2023-05-04T21:33:20.865Z,16.80
2023-05-04T21:36:13.636Z,16.80
2023-05-04T21:39:03.281Z,16.70
2023-05-04T21:41:51.214Z,16.60
2023-05-04T21:44:39.282Z,16.60
2023-05-04T21:47:27.974Z,16.50
2023-05-04T21:50:16.246Z,16.40
2023-05-04T21:53:04.222Z,16.40
2023-05-04T21:55:53.491Z,16.40
2023-05-04T21:58:42.069Z,16.30
2023-05-04T22:01:30.121Z,16.30
2023-05-04T22:04:18.193Z,16.30
2023-05-04T22:07:06.161Z,16.30
2023-05-04T22:09:54.118Z,16.20
2023-05-04T22:12:43.435Z,16.20
2023-05-04T22:15:42.034Z,16.10
2023-05-04T22:18:34.480Z,16.20
2023-05-04T22:21:22.455Z,16.20
2023-05-04T22:24:10.639Z,16.10
2023-05-04T22:26:58.706Z,16.00
2023-05-04T22:29:48.016Z,15.90
2023-05-04T22:32:36.026Z,15.80
2023-05-04T22:35:24.239Z,15.80
2023-05-04T22:38:14.254Z,15.80
2023-05-04T22:41:02.387Z,15.70
2023-05-04T22:43:50.360Z,15.70
2023-05-04T22:46:39.793Z,15.60
2023-05-04T22:49:27.851Z,15.60
2023-05-04T22:52:16.032Z,15.60
2023-05-04T22:55:04.045Z,15.60
2023-05-04T22:57:52.135Z,15.60
2023-05-04T23:00:40.057Z,15.50
2023-05-04T23:03:29.858Z,15.50
2023-05-04T23:06:17.986Z,15.50
2023-05-04T23:09:06.006Z,15.40
2023-05-04T23:11:54.200Z,15.40
2023-05-04T23:14:42.363Z,15.40
2023-05-04T23:17:30.457Z,15.30
2023-05-04T23:20:19.860Z,15.40
2023-05-04T23:23:07.797Z,15.40
2023-05-04T23:25:55.962Z,15.40
2023-05-04T23:28:44.309Z,15.40
2023-05-04T23:31:32.287Z,15.40
2023-05-04T23:34:20.300Z,15.30
2023-05-04T23:37:09.699Z,15.20
2023-05-04T23:39:57.693Z,15.10
2023-05-04T23:42:49.357Z,15.00
2023-05-04T23:45:37.422Z,15.10
2023-05-04T23:48:25.378Z,15.00
2023-05-04T23:51:13.355Z,15.00
2023-05-04T23:54:02.641Z,15.00
2023-05-04T23:56:50.501Z,14.90
2023-05-04T23:59:40.241Z,15.00
